Latest Weather Observations for Bowen Airport AWS

IDQ60801

Issued at 10:32 am EST Sunday 24 July 2016 (issued every 30 minutes, with the page automatically refreshed every 10 minutes)

About weather observations | Map of weather stations | Latest weather observations for QLD | Other Formats
Station Details ID: 033327 Name: BOWEN AIRPORT AWS Lat: -20.02 Lon: 148.21 Height: 5.9 m
Data from the previous 72 hours. | See also: Recent months at Bowen Airport AWS
Date/Time
EST
Temp
°C
App
Temp
°C
Dew
Point
°C
Rel
Hum
%
Delta-T
°C
Wind Press
QNH
hPa
Press
MSL
hPa
Rain since
9am
mm
Dir  Spd
km/h
Gust
km/h
Spd
kts
Gust
kts
24/10:30am 24.3 26.8 19.1 73 3.3 WNW 4 7 2 4 1016.2 1016.2 0.0
24/10:00am 23.7 26.3 19.2 76 2.9 SW 4 9 2 5 1016.5 1016.5 0.0
24/09:30am 23.1 25.8 20.2 84 1.9 WSW 6 13 3 7 1016.6 1016.6 0.0
24/09:00am 21.8 24.8 20.1 90 1.1 SW 4 6 2 3 1016.5 1016.5 0.2
24/08:30am 20.3 22.8 19.1 93 0.8 SW 4 4 2 2 1016.3 1016.3 0.2
24/08:00am 19.6 22.1 19.1 97 0.3 SW 4 6 2 3 1016.0 1016.0 0.2
24/07:30am 18.2 19.8 17.9 98 0.2 SW 6 7 3 4 1015.9 1015.9 0.2
24/07:00am 17.3 18.6 17.1 99 0.1 SW 6 7 3 4 1015.7 1015.7 0.2
24/06:30am 17.0 18.2 16.8 99 0.1 SW 6 7 3 4 1015.3 1015.3 0.2
24/06:00am 17.3 19.0 17.1 99 0.1 SW 4 4 2 2 1014.9 1014.9 0.2
24/05:30am 17.4 18.7 17.2 99 0.1 SW 6 6 3 3 1014.6 1014.6 0.2
24/05:00am 17.5 18.7 17.3 99 0.1 SW 7 9 4 5 1014.5 1014.5 0.2
24/04:30am 17.1 18.7 16.8 98 0.2 SW 4 6 2 3 1014.2 1014.2 0.2
24/04:00am 17.5 18.7 17.3 99 0.1 SW 7 9 4 5 1014.0 1014.0 0.2
24/03:30am 17.6 19.0 17.4 99 0.1 SW 6 7 3 4 1014.1 1014.1 0.2
24/03:00am 17.6 19.0 17.3 98 0.2 WSW 6 7 3 4 1014.0 1014.0 0.2
24/02:30am 17.9 19.4 17.7 99 0.1 WSW 6 6 3 3 1013.9 1013.9 0.2
24/02:00am 18.1 19.7 17.8 98 0.2 WSW 6 6 3 3 1014.0 1014.0 0.2
24/01:30am 18.1 19.7 17.8 98 0.2 WSW 6 7 3 4 1014.0 1014.0 0.2
24/01:00am 18.4 19.9 18.1 98 0.2 WSW 7 9 4 5 1014.2 1014.2 0.2
24/12:30am 18.4 20.1 18.1 98 0.2 SW 6 7 3 4 1014.2 1014.2 0.2
24/12:00am 18.7 20.4 18.5 99 0.1 SW 7 7 4 4 1014.4 1014.4 0.2
 
Date/Time
EST
Temp
°C
App
Temp
°C
Dew
Point
°C
Rel
Hum
%
Delta-T
°C
Wind Press
QNH
hPa
Press
MSL
hPa
Rain since
9am
mm
Dir  Spd
km/h
Gust
km/h
Spd
kts
Gust
kts
23/11:30pm 18.6 20.2 18.3 98 0.2 SW 7 9 4 5 1014.3 1014.3 0.2
23/11:00pm 18.9 20.8 18.6 98 0.2 SW 6 7 3 4 1014.5 1014.5 0.2
23/10:30pm 18.9 20.7 18.4 97 0.3 SSW 6 6 3 3 1014.5 1014.5 0.2
23/10:00pm 19.0 20.7 18.5 97 0.3 SW 7 7 4 4 1014.4 1014.4 0.2
23/09:30pm 19.5 22.7 18.8 96 0.4 CALM 0 0 0 0 1014.3 1014.3 0.2
23/09:00pm 20.1 23.5 19.4 96 0.4 CALM 0 0 0 0 1014.2 1014.2 0.2
23/08:30pm 20.1 23.0 19.1 94 0.6 N 2 2 1 1 1014.1 1014.1 0.2
23/08:00pm 20.2 23.4 18.9 92 0.8 CALM 0 0 0 0 1013.8 1013.8 0.2
23/07:30pm 20.8 24.3 19.5 92 0.8 CALM 0 0 0 0 1013.6 1013.6 0.2
23/07:00pm 21.4 24.2 19.7 90 1.1 N 4 4 2 2 1013.3 1013.3 0.2
23/06:30pm 21.9 24.8 19.8 88 1.3 N 4 4 2 2 1012.9 1012.9 0.2
23/06:00pm 22.5 25.0 19.9 85 1.7 NNW 6 7 3 4 1012.8 1012.8 0.2
23/05:30pm 23.4 25.9 19.8 80 2.3 NNW 6 9 3 5 1012.5 1012.5 0.2
23/05:00pm 24.2 25.7 19.7 76 2.9 N 11 15 6 8 1012.3 1012.3 0.2
23/04:30pm 24.7 26.0 19.3 72 3.5 N 11 15 6 8 1012.2 1012.2 0.2
23/04:00pm 25.2 26.6 19.6 71 3.6 N 11 15 6 8 1012.2 1012.2 0.2
23/03:30pm 25.4 26.8 19.5 70 3.8 N 11 17 6 9 1012.2 1012.2 0.2
23/03:00pm 25.5 26.9 19.6 70 3.8 NNE 11 15 6 8 1012.3 1012.3 0.2
23/02:30pm 25.6 27.0 19.5 69 3.9 N 11 15 6 8 1012.5 1012.5 0.2
23/02:00pm 25.8 27.1 19.4 67 4.1 NNE 11 17 6 9 1013.0 1013.0 0.2
23/01:30pm 26.2 28.0 19.6 67 4.3 NNE 9 15 5 8 1013.1 1013.1 0.2
23/01:00pm 25.9 27.7 18.8 65 4.5 N 7 11 4 6 1013.7 1013.7 0.2
23/12:30pm 25.7 27.9 19.6 69 3.9 NE 7 13 4 7 1014.0 1014.0 0.2
23/12:00pm 24.6 26.8 19.7 74 3.2 ESE 7 11 4 6 1014.5 1014.5 0.2
23/11:30am 24.5 27.1 19.3 73 3.3 ENE 4 6 2 3 1015.0 1015.0 0.2
23/11:00am 23.9 26.2 19.4 76 2.9 NE 6 9 3 5 1015.5 1015.5 0.2
23/10:30am 24.7 27.3 20.0 75 3.0 ESE 6 9 3 5 1015.9 1015.9 0.0
23/10:00am 23.6 26.1 19.9 80 2.4 SSW 6 9 3 5 1016.1 1016.1 0.0
23/09:30am 22.1 24.2 19.3 84 1.8 SSW 7 9 4 5 1016.1 1016.1 0.0
23/09:00am 20.4 22.2 18.2 87 1.4 SW 6 6 3 3 1016.0 1016.0 0.0
23/08:30am 19.2 21.3 18.0 93 0.7 SW 4 6 2 3 1015.7 1015.7 0.0
23/08:00am 17.8 18.9 17.2 96 0.4 SW 7 11 4 6 1015.6 1015.6 0.0
23/07:30am 16.6 17.4 16.3 98 0.2 SW 7 9 4 5 1015.4 1015.4 0.0
23/07:00am 16.0 16.2 15.8 99 0.1 SW 9 9 5 5 1015.1 1015.1 0.0
23/06:30am 15.3 15.8 15.0 98 0.2 SW 6 7 3 4 1014.8 1014.8 0.0
23/06:00am 15.5 16.8 15.2 98 0.2 SW 2 4 1 2 1014.5 1014.5 0.0
23/05:30am 15.8 16.9 15.6 99 0.1 SW 4 4 2 2 1014.1 1014.1 0.0
23/05:00am 15.7 16.1 15.4 98 0.2 SW 7 7 4 4 1014.0 1014.0 0.0
23/04:30am 16.1 16.7 15.9 99 0.1 SW 7 9 4 5 1014.0 1014.0 0.0
23/04:00am 16.1 16.3 15.8 98 0.2 SW 9 9 5 5 1013.7 1013.7 0.0
23/03:30am 16.3 17.0 16.1 99 0.1 SW 7 9 4 5 1013.6 1013.6 0.0
23/03:00am 16.2 16.5 15.9 98 0.2 WSW 9 9 5 5 1013.8 1013.8 0.0
23/02:30am 16.9 17.8 16.7 99 0.1 SW 7 9 4 5 1014.0 1014.0 0.0
23/02:00am 16.7 17.7 16.4 98 0.2 SSW 6 7 3 4 1014.1 1014.1 0.0
23/01:30am 16.8 17.8 16.3 97 0.3 SSW 6 7 3 4 1014.3 1014.3 0.0
23/01:00am 17.4 19.0 16.9 97 0.3 SW 4 6 2 3 1014.5 1014.5 0.0
23/12:30am 18.1 19.6 17.5 96 0.4 SW 6 6 3 3 1014.7 1014.7 0.0
23/12:00am 18.4 20.8 17.9 97 0.3 SW 2 4 1 2 1014.8 1014.8 0.0
 
Date/Time
EST
Temp
°C
App
Temp
°C
Dew
Point
°C
Rel
Hum
%
Delta-T
°C
Wind Press
QNH
hPa
Press
MSL
hPa
Rain since
9am
mm
Dir  Spd
km/h
Gust
km/h
Spd
kts
Gust
kts
22/11:30pm 18.5 20.5 17.9 96 0.4 SW 4 4 2 2 1014.9 1014.9 0.0
22/11:00pm 18.6 20.1 18.1 97 0.3 SW 7 9 4 5 1014.9 1014.9 0.0
22/10:30pm 18.8 20.6 18.3 97 0.3 SW 6 7 3 4 1015.0 1015.0 0.0
22/10:00pm 18.8 20.0 18.3 97 0.3 SW 9 11 5 6 1015.0 1015.0 0.0
22/09:30pm 18.8 20.9 18.0 95 0.5 NNE 4 6 2 3 1014.8 1014.8 0.0
22/09:00pm 19.3 22.2 18.1 93 0.7 CALM 0 0 0 0 1014.7 1014.7 0.0
22/08:30pm 19.5 22.3 18.0 91 0.9 CALM 0 0 0 0 1014.8 1014.8 0.0
22/08:00pm 21.4 23.9 19.1 87 1.5 NNE 4 6 2 3 1014.7 1014.7 0.0
22/07:30pm 21.6 23.8 19.2 86 1.5 NE 6 7 3 4 1014.6 1014.6 0.0
22/07:00pm 21.7 23.9 19.3 86 1.5 NE 6 6 3 3 1014.5 1014.5 0.0
22/06:30pm 22.1 24.7 19.3 84 1.8 NE 4 6 2 3 1014.3 1014.3 0.0
22/06:00pm 22.5 24.7 19.1 81 2.2 NE 6 7 3 4 1014.1 1014.1 0.0
22/05:30pm 23.6 25.3 18.5 73 3.2 NE 7 11 4 6 1014.1 1014.1 0.0
22/05:00pm 24.5 26.0 18.0 67 4.1 NE 7 11 4 6 1014.0 1014.0 0.0
22/04:30pm 25.1 26.1 17.8 64 4.6 NNE 9 13 5 7 1013.8 1013.8 0.0
22/04:00pm 25.8 26.6 17.4 59 5.2 NE 9 13 5 7 1013.8 1013.8 0.0
22/03:30pm 25.4 25.7 17.1 60 5.2 N 11 15 6 8 1013.8 1013.8 0.0
22/03:00pm 25.5 25.6 17.4 61 5.1 NNE 13 17 7 9 1013.9 1013.9 0.0
22/02:30pm 25.9 27.0 17.0 58 5.5 NE 7 13 4 7 1014.2 1014.2 0.0
22/02:00pm 25.8 26.6 17.4 59 5.2 E 9 15 5 8 1014.3 1014.3 0.0
22/01:30pm 25.3 26.0 17.0 60 5.1 ESE 9 13 5 7 1014.7 1014.7 0.0
22/01:00pm 25.2 26.2 17.7 63 4.7 ESE 9 15 5 8 1015.1 1015.1 0.0
22/12:30pm 25.0 26.3 18.4 66 4.2 ESE 9 13 5 7 1015.5 1015.5 0.0
22/12:00pm 24.5 25.3 18.2 68 4.0 ESE 11 15 6 8 1015.9 1015.9 0.0
22/11:30am 24.3 25.3 18.7 71 3.6 SE 11 15 6 8 1016.2 1016.2 0.0
22/11:00am 23.9 24.3 19.0 74 3.1 SE 15 19 8 10 1016.6 1016.6 0.0
22/10:30am 23.8 24.4 18.7 73 3.2 SE 13 19 7 10 1016.8 1016.8 0.0
22/10:00am 23.3 23.5 18.6 75 3.0 SE 15 19 8 10 1017.1 1017.1 0.0
22/09:30am 22.8 23.1 18.8 78 2.5 SE 15 19 8 10 1017.2 1017.2 0.0
22/09:00am 21.9 22.5 18.7 82 2.0 SE 13 19 7 10 1017.1 1017.1 0.0
22/08:30am 20.6 22.7 18.9 90 1.1 S 6 15 3 8 1017.1 1017.1 0.0
22/08:00am 19.1 20.9 18.3 95 0.5 SW 6 7 3 4 1017.0 1017.0 0.0
22/07:30am 18.0 19.5 17.5 97 0.3 SW 6 7 3 4 1016.8 1016.8 0.0
22/07:00am 17.7 18.5 17.4 98 0.2 SW 9 11 5 6 1016.6 1016.6 0.0
22/06:30am 17.1 18.6 16.6 97 0.3 SSE 4 6 2 3 1016.3 1016.3 0.0
22/06:00am 17.7 18.8 17.2 97 0.3 SSE 7 9 4 5 1016.2 1016.2 0.0
22/05:30am 17.4 18.6 16.8 96 0.4 SW 6 7 3 4 1015.9 1015.9 0.0
22/05:00am 18.9 20.5 18.2 96 0.4 SSE 7 9 4 5 1015.8 1015.8 0.0
22/04:30am 18.9 19.7 18.2 96 0.4 SSE 11 13 6 7 1015.7 1015.7 0.0
22/04:00am 19.0 19.9 18.3 96 0.4 SSE 11 13 6 7 1015.7 1015.7 0.0
22/03:30am 19.0 20.3 18.5 97 0.3 SSE 9 13 5 7 1015.9 1015.9 0.0
22/03:00am 18.6 20.5 17.6 94 0.6 SSE 4 6 2 3 1016.1 1016.1 0.0
22/02:30am 19.3 20.3 18.6 96 0.4 SSE 11 15 6 8 1016.3 1016.3 0.0
22/02:00am 19.4 20.4 18.7 96 0.4 SSE 11 13 6 7 1016.4 1016.4 0.0
22/01:30am 19.4 20.8 18.7 96 0.4 SSE 9 13 5 7 1016.7 1016.7 0.0
22/01:00am 19.7 21.6 18.9 95 0.5 SSE 7 11 4 6 1016.9 1016.9 0.0
22/12:30am 20.3 21.3 19.5 95 0.5 SE 13 17 7 9 1017.1 1017.1 0.0
22/12:00am 20.7 21.0 19.5 93 0.8 SE 17 22 9 12 1017.2 1017.2 0.0
 
Date/Time
EST
Temp
°C
App
Temp
°C
Dew
Point
°C
Rel
Hum
%
Delta-T
°C
Wind Press
QNH
hPa
Press
MSL
hPa
Rain since
9am
mm
Dir  Spd
km/h
Gust
km/h
Spd
kts
Gust
kts
21/11:30pm 20.7 21.8 19.7 94 0.6 SE 13 17 7 9 1017.2 1017.2 0.0
21/11:00pm 20.4 21.1 19.6 95 0.5 SE 15 19 8 10 1017.4 1017.4 0.0
21/10:30pm 20.4 22.2 19.6 95 0.5 SSE 9 13 5 7 1017.6 1017.6 0.0
21/10:00pm 20.7 22.1 19.5 93 0.8 SE 11 15 6 8 1017.5 1017.5 0.0
21/09:30pm 21.0 22.1 19.7 92 0.8 SE 13 20 7 11 1017.5 1017.5 0.0
21/09:00pm 21.2 22.3 19.7 91 1.0 SE 13 15 7 8 1017.4 1017.4 0.0
21/08:30pm 21.3 21.9 19.4 89 1.2 SE 15 20 8 11 1017.2 1017.2 0.0
21/08:00pm 22.4 22.9 19.2 82 2.0 ESE 15 20 8 11 1016.7 1016.7 0.0
21/07:30pm 22.5 22.9 19.1 81 2.2 ESE 15 20 8 11 1016.3 1016.3 0.0
21/07:00pm 22.5 23.0 19.3 82 2.0 E 15 20 8 11 1016.1 1016.1 0.0
21/06:30pm 22.7 22.9 18.5 77 2.6 E 15 20 8 11 1015.7 1015.7 0.0
21/06:00pm 23.0 23.1 18.3 75 2.9 E 15 20 8 11 1015.6 1015.6 0.0
21/05:30pm 23.5 23.0 17.9 71 3.5 E 17 24 9 13 1015.3 1015.3 0.0
21/05:00pm 24.1 23.1 17.6 67 4.0 E 19 26 10 14 1014.9 1014.9 0.0
21/04:30pm 24.6 23.7 17.8 66 4.3 ENE 19 24 10 13 1014.9 1014.9 0.0
21/04:00pm 25.2 24.7 17.7 63 4.7 E 17 22 9 12 1014.9 1014.9 0.0
21/03:30pm 25.6 25.3 18.3 64 4.6 E 17 24 9 13 1014.9 1014.9 0.0
21/03:00pm 25.6 24.8 18.0 63 4.8 E 19 22 10 12 1014.9 1014.9 0.0
21/02:30pm 25.7 25.6 17.9 62 4.9 E 15 20 8 11 1015.1 1015.1 0.0
21/02:00pm 25.9 26.1 18.6 64 4.6 E 15 20 8 11 1015.4 1015.4 0.0
21/01:30pm 25.4 25.9 18.3 65 4.5 E 13 19 7 10 1015.8 1015.8 0.0
21/01:00pm 25.3 25.9 18.7 67 4.2 ESE 13 17 7 9 1016.2 1016.2 0.0
21/12:30pm 25.6 25.2 18.0 63 4.8 ESE 17 20 9 11 1016.7 1016.7 0.0
21/12:00pm 25.2 25.6 18.9 68 4.0 SE 15 20 8 11 1017.2 1017.2 0.0
21/11:30am 24.7 24.7 18.9 70 3.7 SE 17 20 9 11 1017.6 1017.6 0.0
21/11:00am 24.6 24.6 19.7 74 3.2 SE 19 24 10 13 1017.9 1017.9 0.0

Other Formats:

Comma delimited format used in spreadsheet applications
http://www.bom.gov.au/fwo/IDQ60801/IDQ60801.94383.axf

JavaScript Object Notation format (JSON) in row-major order
http://www.bom.gov.au/fwo/IDQ60801/IDQ60801.94383.json